Time;durP1;ratioP1;P1;durP2;ratioP2;P2;SDS_P1;SDS_P2;PMS_P1;PMS_P2;Temp;Humidity;BMP_temperature;BMP_pressure;BME280_temperature;BME280_humidity;BME280_pressure;Samples;Min_cycle;Max_cycle;Signal;HPM_P1;HPM_P2
2022/10/30 00:01:57;;;;;;;27.15;12.15;;;14.60;99.90;;;;;;5051920;28;20029;-63
2022/10/30 00:04:22;;;;;;;19.23;11.63;;;14.60;99.90;;;;;;5052784;28;20394;-64
2022/10/30 00:06:48;;;;;;;21.15;11.95;;;14.60;99.90;;;;;;5033331;28;20505;-63
2022/10/30 00:09:14;;;;;;;23.17;12.68;;;14.60;99.90;;;;;;5034742;28;20406;-63
2022/10/30 00:11:40;;;;;;;21.38;10.98;;;14.60;99.90;;;;;;5034820;28;20053;-64
2022/10/30 00:14:07;;;;;;;25.17;12.90;;;14.60;99.90;;;;;;5033666;28;20486;-64
2022/10/30 00:16:33;;;;;;;24.48;12.07;;;14.60;99.90;;;;;;5034339;28;20099;-64
2022/10/30 00:18:58;;;;;;;18.58;12.95;;;14.60;99.90;;;;;;5017856;28;20042;-64
2022/10/30 00:21:24;;;;;;;19.75;11.43;;;14.60;99.90;;;;;;5033833;28;20104;-64
2022/10/30 00:23:52;;;;;;;16.40;11.77;;;14.60;99.90;;;;;;5033866;28;20068;-64
2022/10/30 00:26:19;;;;;;;20.77;11.80;;;14.60;99.90;;;;;;5052265;28;20044;-64
2022/10/30 00:28:52;;;;;;;18.05;11.20;;;14.60;99.90;;;;;;5033366;28;20363;-64
2022/10/30 00:31:18;;;;;;;26.98;13.10;;;14.50;99.90;;;;;;5052583;28;20036;-64
2022/10/30 00:33:51;;;;;;;24.63;13.43;;;14.50;99.90;;;;;;5034003;28;20048;-64
2022/10/30 00:36:17;;;;;;;20.27;11.75;;;14.50;99.90;;;;;;5017192;28;20045;-64
2022/10/30 00:38:43;;;;;;;21.42;12.07;;;14.50;99.90;;;;;;5034218;28;20053;-63
2022/10/30 00:41:18;;;;;;;23.23;13.68;;;14.40;99.90;;;;;;5034159;28;20162;-64
2022/10/30 00:43:44;;;;;;;21.42;12.43;;;14.40;99.90;;;;;;5052082;28;20112;-64
2022/10/30 00:46:25;;;;;;;18.73;11.93;;;14.30;99.90;;;;;;5034120;28;20128;-64
2022/10/30 00:48:56;;;;;;;18.65;12.77;;;14.30;99.90;;;;;;5033141;28;20359;-64
2022/10/30 00:51:22;;;;;;;23.20;13.50;;;14.30;99.90;;;;;;5034246;28;20076;-64
2022/10/30 00:53:49;;;;;;;26.92;13.48;;;14.30;99.90;;;;;;5033846;28;20155;-63
2022/10/30 00:56:19;;;;;;;23.77;12.65;;;14.30;99.90;;;;;;5033547;28;20434;-64
2022/10/30 00:58:58;;;;;;;22.77;13.30;;;14.20;99.90;;;;;;5051569;28;20436;-64
2022/10/30 01:01:26;;;;;;;20.83;12.50;;;14.20;99.90;;;;;;5051912;28;20045;-64
2022/10/30 01:03:55;;;;;;;19.73;12.60;;;14.20;99.90;;;;;;5032912;28;20041;-63
2022/10/30 01:06:22;;;;;;;19.65;12.52;;;14.20;99.90;;;;;;5037563;28;20041;-64
2022/10/30 01:08:50;;;;;;;21.65;12.15;;;14.20;99.90;;;;;;5037537;28;20071;-64
2022/10/30 01:11:15;;;;;;;22.52;13.40;;;14.10;99.90;;;;;;5037372;28;20075;-64
2022/10/30 01:13:44;;;;;;;22.20;12.32;;;14.10;99.90;;;;;;5037723;28;20037;-64
2022/10/30 01:16:31;;;;;;;20.17;12.27;;;14.10;99.90;;;;;;5021730;28;20498;-64
2022/10/30 01:19:30;;;;;;;20.45;12.93;;;14.10;99.90;;;;;;5037192;28;20044;-64
2022/10/30 01:22:34;;;;;;;18.15;11.13;;;14.10;99.90;;;;;;5033561;28;20061;-64
2022/10/30 01:25:09;;;;;;;20.75;11.93;;;14.10;99.90;;;;;;4961644;28;20060;-63
2022/10/30 01:27:57;;;;;;;19.05;12.18;;;14.10;99.90;;;;;;5035705;28;20044;-63
2022/10/30 01:30:55;;;;;;;22.30;12.38;;;14.00;99.90;;;;;;5018330;28;20478;-64
2022/10/30 01:33:53;;;;;;;18.75;11.35;;;14.10;99.90;;;;;;4988069;28;20053;-64
2022/10/30 01:36:24;;;;;;;20.80;11.40;;;14.10;99.90;;;;;;5035746;28;20042;-64
2022/10/30 01:38:55;;;;;;;23.85;13.98;;;14.00;99.90;;;;;;5016789;28;20478;-64
2022/10/30 01:41:20;;;;;;;18.08;11.43;;;14.10;99.90;;;;;;5017991;28;20057;-64
2022/10/30 01:43:49;;;;;;;17.30;11.02;;;14.10;99.90;;;;;;5000868;28;20037;-64
2022/10/30 01:46:40;;;;;;;27.15;12.52;;;14.10;99.90;;;;;;5016778;28;20498;-63
2022/10/30 01:49:25;;;;;;;22.98;11.75;;;14.00;99.90;;;;;;5014483;28;20045;-63
2022/10/30 01:52:00;;;;;;;23.92;12.27;;;14.00;99.90;;;;;;5016576;28;20864;-64
2022/10/30 01:54:29;;;;;;;24.02;12.65;;;14.00;99.90;;;;;;5017541;28;20523;-63
2022/10/30 01:57:20;;;;;;;26.95;13.55;;;14.00;99.90;;;;;;5017309;28;20491;-64
2022/10/30 02:00:00;;;;;;;17.08;11.32;;;14.00;99.90;;;;;;5033904;28;20045;-64
2022/10/30 02:02:26;;;;;;;21.60;13.88;;;13.90;99.90;;;;;;5017356;28;20049;-64
2022/10/30 02:04:52;;;;;;;19.90;12.93;;;13.90;99.90;;;;;;5016774;28;20402;-64
2022/10/30 02:07:18;;;;;;;20.27;12.23;;;13.90;99.90;;;;;;5034550;28;20033;-64
2022/10/30 02:09:44;;;;;;;29.85;12.38;;;13.90;99.90;;;;;;5017005;28;20068;-64
2022/10/30 02:12:10;;;;;;;19.23;11.82;;;13.90;99.90;;;;;;5035013;28;20113;-64
2022/10/30 02:14:40;;;;;;;19.77;11.82;;;13.90;99.90;;;;;;5016222;28;20041;-63
2022/10/30 02:17:07;;;;;;;24.15;12.38;;;13.90;99.90;;;;;;5016662;28;20049;-63
2022/10/30 02:19:33;;;;;;;18.85;12.32;;;13.90;99.90;;;;;;5017123;28;20040;-64
2022/10/30 02:21:59;;;;;;;19.00;11.88;;;13.90;99.90;;;;;;5015986;28;20053;-64
2022/10/30 02:24:25;;;;;;;18.77;13.23;;;13.90;99.90;;;;;;5034944;28;20088;-64
2022/10/30 02:26:50;;;;;;;25.05;13.20;;;13.90;99.90;;;;;;5015523;28;20049;-64
2022/10/30 02:29:19;;;;;;;18.88;12.32;;;13.90;99.90;;;;;;5034686;28;20033;-63
2022/10/30 02:31:45;;;;;;;23.35;12.43;;;14.00;99.90;;;;;;5016170;28;20038;-64
2022/10/30 02:34:11;;;;;;;22.38;13.35;;;14.00;99.90;;;;;;5016157;28;20132;-64
2022/10/30 02:36:36;;;;;;;24.67;13.45;;;13.90;99.90;;;;;;5034395;28;20467;-63
2022/10/30 02:39:02;;;;;;;25.80;12.82;;;13.90;99.90;;;;;;5016887;28;20107;-64
2022/10/30 02:41:28;;;;;;;21.85;11.65;;;14.00;99.90;;;;;;4999971;28;20049;-64
2022/10/30 02:43:54;;;;;;;26.05;12.27;;;14.00;99.90;;;;;;5016159;28;20037;-64
2022/10/30 02:46:20;;;;;;;21.52;12.48;;;14.00;99.90;;;;;;5034083;28;20564;-64
2022/10/30 02:48:46;;;;;;;20.00;11.00;;;14.00;99.90;;;;;;5033249;28;20033;-64
2022/10/30 02:51:12;;;;;;;29.00;12.68;;;14.00;99.90;;;;;;5016528;28;20067;-64
2022/10/30 02:53:37;;;;;;;22.35;11.52;;;14.00;99.90;;;;;;5016623;28;20041;-64
2022/10/30 02:56:05;;;;;;;25.00;12.82;;;14.00;99.90;;;;;;5015444;28;20052;-64
2022/10/30 02:58:31;;;;;;;23.50;13.10;;;13.90;99.90;;;;;;5016378;28;20490;-64
2022/10/30 03:00:56;;;;;;;22.38;13.35;;;13.90;99.90;;;;;;5015752;28;20049;-64
2022/10/30 03:03:22;;;;;;;22.83;12.25;;;14.00;99.90;;;;;;5015461;28;20053;-64
2022/10/30 03:05:47;;;;;;;24.17;13.43;;;13.90;99.90;;;;;;5033530;28;20046;-64
2022/10/30 03:08:13;;;;;;;19.80;11.50;;;13.90;99.90;;;;;;4999956;28;20068;-64
2022/10/30 03:10:39;;;;;;;20.25;12.32;;;13.90;99.90;;;;;;5015109;28;20052;-64
2022/10/30 03:13:04;;;;;;;21.77;12.80;;;13.90;99.90;;;;;;5016158;28;20048;-64
2022/10/30 03:15:30;;;;;;;18.73;12.55;;;13.90;99.90;;;;;;5016092;28;20474;-64
2022/10/30 03:17:56;;;;;;;25.25;12.25;;;13.90;99.90;;;;;;4998429;28;20088;-64
2022/10/30 03:20:21;;;;;;;22.00;11.90;;;13.90;99.90;;;;;;5016090;28;20057;-64
2022/10/30 03:22:47;;;;;;;27.63;12.10;;;13.90;99.90;;;;;;5026288;28;20061;-64
2022/10/30 03:25:13;;;;;;;21.70;11.73;;;13.90;99.90;;;;;;5018954;28;20041;-64
2022/10/30 03:27:38;;;;;;;22.10;13.18;;;13.90;99.90;;;;;;5035212;28;20097;-64
2022/10/30 03:30:04;;;;;;;21.67;12.40;;;13.90;99.90;;;;;;5034431;28;20556;-63
2022/10/30 03:32:30;;;;;;;26.10;12.43;;;13.90;99.90;;;;;;5035883;28;20045;-64
2022/10/30 03:34:55;;;;;;;21.20;12.10;;;13.90;99.90;;;;;;5035175;28;20179;-64
2022/10/30 03:37:21;;;;;;;26.10;13.02;;;13.90;99.90;;;;;;5052953;28;21009;-64
2022/10/30 03:39:47;;;;;;;21.52;11.88;;;13.90;99.90;;;;;;5034948;28;20045;-64
2022/10/30 03:42:12;;;;;;;24.88;12.27;;;14.00;99.90;;;;;;5035542;28;20107;-64
2022/10/30 03:44:38;;;;;;;21.25;12.60;;;13.90;99.90;;;;;;5051957;28;20120;-64
2022/10/30 03:47:04;;;;;;;27.45;12.40;;;13.90;99.90;;;;;;5018617;28;20068;-64
2022/10/30 03:49:29;;;;;;;19.20;12.23;;;13.90;99.90;;;;;;5053499;28;20090;-63
2022/10/30 03:51:55;;;;;;;22.98;11.73;;;13.90;99.90;;;;;;5033852;28;20116;-64
2022/10/30 03:54:20;;;;;;;25.55;14.25;;;13.90;99.90;;;;;;5035310;28;20055;-63
2022/10/30 03:56:46;;;;;;;21.67;12.65;;;13.90;99.90;;;;;;5034567;28;20040;-64
2022/10/30 03:59:11;;;;;;;20.15;12.43;;;13.90;99.90;;;;;;5034122;28;20040;-64
2022/10/30 04:01:37;;;;;;;22.67;12.60;;;13.90;99.90;;;;;;5052673;28;20401;-64
2022/10/30 04:04:03;;;;;;;21.75;13.43;;;13.90;99.90;;;;;;5034865;28;20556;-63
2022/10/30 04:06:29;;;;;;;20.58;12.85;;;13.80;99.90;;;;;;5017546;28;20505;-63
2022/10/30 04:08:54;;;;;;;26.08;14.25;;;13.80;99.90;;;;;;5052097;28;20037;-64
2022/10/30 04:11:20;;;;;;;24.45;13.50;;;13.80;99.90;;;;;;5035123;28;20040;-63
2022/10/30 04:13:46;;;;;;;23.35;13.10;;;13.80;99.90;;;;;;5016964;28;20470;-64
2022/10/30 04:16:11;;;;;;;24.98;13.95;;;13.70;99.90;;;;;;5052607;28;20087;-64
2022/10/30 04:18:37;;;;;;;22.38;14.02;;;13.80;99.90;;;;;;5034477;28;20076;-63
2022/10/30 04:21:03;;;;;;;20.77;11.90;;;13.70;99.90;;;;;;5033800;28;20048;-64
2022/10/30 04:23:29;;;;;;;22.50;13.10;;;13.70;99.90;;;;;;5052270;28;20053;-64
2022/10/30 04:25:54;;;;;;;26.48;13.57;;;13.70;99.90;;;;;;5034181;28;20098;-64
2022/10/30 04:28:20;;;;;;;26.48;13.75;;;13.70;99.90;;;;;;5033735;28;20171;-64
2022/10/30 04:30:46;;;;;;;22.38;13.77;;;13.80;99.90;;;;;;5033998;28;20163;-64
2022/10/30 04:33:13;;;;;;;25.80;13.95;;;13.70;99.90;;;;;;5034668;28;20496;-63
2022/10/30 04:35:39;;;;;;;31.90;13.88;;;13.70;99.90;;;;;;5016974;28;20055;-64
2022/10/30 04:38:10;;;;;;;24.98;13.43;;;13.70;99.90;;;;;;5052228;28;20421;-63
2022/10/30 04:40:38;;;;;;;26.58;13.20;;;13.70;99.90;;;;;;5032788;28;20792;-64
2022/10/30 04:43:04;;;;;;;23.85;14.40;;;13.60;99.90;;;;;;5034186;28;20389;-64
2022/10/30 04:45:30;;;;;;;23.17;14.50;;;13.60;99.90;;;;;;5052300;28;20047;-63
2022/10/30 04:48:06;;;;;;;28.40;15.07;;;13.60;99.90;;;;;;5032969;28;20037;-63
2022/10/30 04:50:32;;;;;;;23.83;14.00;;;13.50;99.90;;;;;;5034533;28;20156;-64
2022/10/30 04:53:06;;;;;;;21.10;13.75;;;13.50;99.90;;;;;;5051872;28;20037;-64
2022/10/30 04:55:33;;;;;;;24.38;13.60;;;13.50;99.90;;;;;;5033688;28;20048;-64
2022/10/30 04:58:01;;;;;;;23.55;13.15;;;13.50;99.90;;;;;;5051786;28;20095;-64
2022/10/30 05:00:29;;;;;;;26.95;14.10;;;13.50;99.90;;;;;;5052223;28;20049;-64
2022/10/30 05:02:59;;;;;;;27.95;14.30;;;13.40;99.90;;;;;;5032951;28;20120;-63
2022/10/30 05:05:24;;;;;;;28.77;14.68;;;13.40;99.90;;;;;;5034029;28;20049;-63
2022/10/30 05:07:50;;;;;;;24.88;14.32;;;13.40;99.90;;;;;;5033497;28;20060;-64
2022/10/30 05:10:17;;;;;;;29.60;14.65;;;13.30;99.90;;;;;;5051601;28;20033;-64
2022/10/30 05:12:44;;;;;;;21.70;13.80;;;13.30;99.90;;;;;;5017252;28;20082;-64
2022/10/30 05:15:11;;;;;;;24.02;14.00;;;13.30;99.90;;;;;;5034324;28;20049;-64
2022/10/30 05:17:37;;;;;;;27.38;14.98;;;13.30;99.90;;;;;;5033147;28;20398;-64
2022/10/30 05:20:04;;;;;;;28.23;15.13;;;13.20;99.90;;;;;;5033768;28;20041;-63
2022/10/30 05:22:29;;;;;;;24.02;15.00;;;13.10;99.90;;;;;;5051277;28;20095;-64
2022/10/30 05:24:55;;;;;;;22.33;14.32;;;13.10;99.90;;;;;;5033278;28;20084;-63
2022/10/30 05:27:21;;;;;;;25.58;14.15;;;13.10;99.90;;;;;;5051718;28;20041;-64
2022/10/30 05:29:46;;;;;;;25.50;15.23;;;13.00;99.90;;;;;;5032641;28;20041;-64
2022/10/30 05:32:12;;;;;;;25.73;14.10;;;13.00;99.90;;;;;;5033900;28;20063;-63
2022/10/30 05:34:38;;;;;;;23.98;13.68;;;13.00;99.90;;;;;;5051573;28;20132;-64
2022/10/30 05:37:03;;;;;;;26.95;14.93;;;12.90;99.90;;;;;;5033008;28;20045;-64
2022/10/30 05:39:29;;;;;;;24.85;15.23;;;12.90;99.90;;;;;;5052262;28;20043;-64
2022/10/30 05:41:54;;;;;;;27.58;15.32;;;12.90;99.90;;;;;;5033243;28;20073;-64
2022/10/30 05:44:20;;;;;;;28.00;15.15;;;12.90;99.90;;;;;;5050992;28;20134;-64
2022/10/30 05:46:46;;;;;;;23.33;14.00;;;12.80;99.90;;;;;;5051009;28;20573;-64
2022/10/30 05:49:12;;;;;;;29.45;15.25;;;12.80;99.90;;;;;;5033870;28;20098;-64
2022/10/30 05:51:37;;;;;;;27.20;16.75;;;12.80;99.90;;;;;;5035099;28;20082;-64
2022/10/30 05:54:03;;;;;;;27.48;15.80;;;12.80;99.90;;;;;;5054958;28;20041;-64
2022/10/30 05:56:29;;;;;;;22.45;16.05;;;12.80;99.90;;;;;;5037295;28;20048;-63
2022/10/30 05:58:55;;;;;;;29.15;15.80;;;12.80;99.90;;;;;;5051641;28;20401;-63
2022/10/30 06:01:20;;;;;;;28.85;16.23;;;12.80;99.90;;;;;;5047736;28;20051;-63
2022/10/30 06:03:46;;;;;;;23.45;15.02;;;12.80;99.90;;;;;;5033239;28;20136;-63
2022/10/30 06:06:12;;;;;;;26.05;16.48;;;12.80;99.90;;;;;;5031701;28;20506;-63
2022/10/30 06:08:37;;;;;;;25.60;16.67;;;12.80;99.90;;;;;;5034159;28;20045;-63
2022/10/30 06:11:03;;;;;;;31.15;17.70;;;12.80;99.90;;;;;;5032833;28;20037;-63
2022/10/30 06:13:29;;;;;;;31.00;16.17;;;12.80;99.90;;;;;;5033614;28;20432;-63
2022/10/30 06:15:55;;;;;;;32.55;16.33;;;12.80;99.90;;;;;;5030401;28;20564;-63
2022/10/30 06:18:21;;;;;;;27.85;16.20;;;12.80;99.90;;;;;;5014224;28;20053;-63
2022/10/30 06:20:47;;;;;;;28.10;16.48;;;12.80;99.90;;;;;;5013108;28;20121;-63
2022/10/30 06:23:14;;;;;;;26.33;17.05;;;12.80;99.90;;;;;;5013600;28;20439;-63
2022/10/30 06:25:40;;;;;;;32.08;17.85;;;12.80;99.90;;;;;;5017438;28;20120;-63
2022/10/30 06:28:05;;;;;;;27.02;16.90;;;12.80;99.90;;;;;;5034865;28;20044;-63
2022/10/30 06:30:32;;;;;;;24.27;16.45;;;12.80;99.90;;;;;;5020187;28;20045;-63
2022/10/30 06:33:03;;;;;;;27.65;17.45;;;12.80;99.90;;;;;;5035284;28;20083;-63
2022/10/30 06:35:29;;;;;;;27.00;16.70;;;12.70;99.90;;;;;;5054311;28;20466;-63
2022/10/30 06:37:57;;;;;;;24.58;15.95;;;12.70;99.90;;;;;;5031601;28;20076;-63
2022/10/30 06:40:23;;;;;;;28.05;18.50;;;12.70;99.90;;;;;;5046691;28;20045;-64
2022/10/30 06:42:50;;;;;;;37.53;19.25;;;12.70;99.90;;;;;;5035076;28;20037;-63
2022/10/30 06:45:17;;;;;;;27.15;18.20;;;12.70;99.90;;;;;;5032614;28;20048;-63
2022/10/30 06:47:43;;;;;;;29.85;16.83;;;12.70;99.90;;;;;;5015435;28;20128;-64
2022/10/30 06:50:15;;;;;;;31.20;18.38;;;12.70;99.90;;;;;;5000451;28;20069;-63
2022/10/30 06:52:41;;;;;;;34.38;18.02;;;12.70;99.90;;;;;;5019692;28;20075;-63
2022/10/30 06:55:08;;;;;;;31.27;18.88;;;12.70;99.90;;;;;;5015460;28;20441;-63
2022/10/30 06:57:34;;;;;;;28.00;17.67;;;12.70;99.90;;;;;;5033644;28;20056;-63
2022/10/30 06:59:59;;;;;;;31.08;17.50;;;12.70;99.90;;;;;;4999695;28;20037;-63
2022/10/30 07:02:25;;;;;;;25.33;17.45;;;12.70;99.90;;;;;;5014633;28;20129;-63
2022/10/30 07:04:51;;;;;;;31.13;18.27;;;12.70;99.90;;;;;;5034292;28;20402;-63
2022/10/30 07:07:17;;;;;;;25.80;17.85;;;12.80;99.90;;;;;;5019287;28;20068;-63
2022/10/30 07:09:44;;;;;;;30.90;18.85;;;12.80;99.90;;;;;;5018808;28;20422;-63
2022/10/30 07:12:10;;;;;;;28.95;18.13;;;12.80;99.90;;;;;;5053968;28;20071;-63
2022/10/30 07:14:36;;;;;;;27.23;18.67;;;12.80;99.90;;;;;;5035528;28;20041;-63
2022/10/30 07:17:01;;;;;;;27.33;16.95;;;12.70;99.90;;;;;;5034810;28;20549;-63
2022/10/30 07:19:27;;;;;;;28.95;17.65;;;12.80;99.90;;;;;;5035462;28;20187;-63
2022/10/30 07:21:53;;;;;;;28.50;17.58;;;12.80;99.90;;;;;;5052627;28;20048;-63
2022/10/30 07:24:18;;;;;;;26.65;17.25;;;12.80;99.90;;;;;;5034085;28;20037;-63
2022/10/30 07:26:44;;;;;;;29.38;15.48;;;12.80;99.90;;;;;;5053040;28;20114;-62
2022/10/30 07:29:13;;;;;;;28.02;17.63;;;12.80;99.90;;;;;;5061972;28;20029;-63
2022/10/30 07:31:42;;;;;;;26.05;16.90;;;12.80;99.90;;;;;;5038765;28;20032;-63
2022/10/30 07:34:09;;;;;;;33.60;18.90;;;12.80;99.90;;;;;;5055042;28;20117;-64
2022/10/30 07:36:35;;;;;;;31.67;18.33;;;12.80;99.90;;;;;;5054399;28;20081;-63
2022/10/30 07:39:01;;;;;;;29.17;16.67;;;12.90;99.90;;;;;;5035358;28;20137;-63
2022/10/30 07:41:26;;;;;;;33.17;18.23;;;12.90;99.90;;;;;;5053327;28;20047;-63
2022/10/30 07:43:52;;;;;;;27.45;17.60;;;12.90;99.90;;;;;;5017795;28;20051;-63
2022/10/30 07:46:17;;;;;;;28.17;18.17;;;13.00;99.90;;;;;;5035200;28;20037;-63
2022/10/30 07:48:43;;;;;;;24.27;14.85;;;13.00;99.90;;;;;;5052712;28;20496;-63
2022/10/30 07:51:09;;;;;;;29.70;17.35;;;13.00;99.90;;;;;;5034072;28;20135;-63
2022/10/30 07:53:35;;;;;;;21.98;15.68;;;13.10;99.90;;;;;;5034932;28;20100;-63
2022/10/30 07:56:00;;;;;;;29.20;16.92;;;13.10;99.90;;;;;;5018494;28;20045;-63
2022/10/30 07:58:26;;;;;;;26.23;16.83;;;13.20;99.90;;;;;;5034321;28;20394;-63
2022/10/30 08:00:51;;;;;;;26.80;17.00;;;13.20;99.90;;;;;;5052503;28;20048;-63
2022/10/30 08:03:17;;;;;;;23.92;15.70;;;13.30;99.90;;;;;;5052852;28;20041;-63
2022/10/30 08:05:43;;;;;;;31.25;15.85;;;13.30;99.90;;;;;;5033895;28;20056;-63
2022/10/30 08:08:08;;;;;;;28.30;16.88;;;13.40;99.90;;;;;;5017734;28;20064;-63
2022/10/30 08:10:35;;;;;;;26.77;15.32;;;13.40;99.90;;;;;;5052738;28;20032;-63
2022/10/30 08:13:01;;;;;;;26.27;15.38;;;13.50;99.90;;;;;;5033641;28;20068;-63
2022/10/30 08:15:27;;;;;;;27.90;14.70;;;13.50;99.90;;;;;;5035089;28;20037;-63
2022/10/30 08:17:53;;;;;;;22.10;15.40;;;13.60;99.90;;;;;;5034352;28;20446;-63
2022/10/30 08:20:21;;;;;;;30.50;15.65;;;13.60;99.90;;;;;;5034234;28;20068;-63
2022/10/30 08:22:57;;;;;;;23.48;16.38;;;13.70;99.90;;;;;;5033632;28;20053;-63
2022/10/30 08:25:28;;;;;;;27.50;16.58;;;13.70;99.90;;;;;;5050963;28;20045;-63
2022/10/30 08:28:02;;;;;;;25.10;15.98;;;13.80;99.90;;;;;;5033678;28;20486;-63
2022/10/30 08:30:33;;;;;;;22.58;16.08;;;13.90;99.90;;;;;;5052464;28;20103;-59
2022/10/30 08:33:00;;;;;;;24.90;15.30;;;13.90;99.90;;;;;;5029980;28;20038;-60
2022/10/30 08:35:26;;;;;;;26.98;16.05;;;14.00;99.90;;;;;;5032687;28;20045;-59
2022/10/30 08:37:59;;;;;;;30.00;15.73;;;14.00;99.90;;;;;;4997896;28;20132;-60
2022/10/30 08:40:25;;;;;;;26.33;15.25;;;14.10;99.90;;;;;;5013938;28;20091;-59
2022/10/30 08:42:52;;;;;;;27.98;16.05;;;14.20;99.90;;;;;;5021066;28;20045;-60
2022/10/30 08:45:19;;;;;;;23.77;14.90;;;14.30;99.90;;;;;;5014765;28;20049;-60
2022/10/30 08:47:45;;;;;;;28.30;17.02;;;14.40;99.90;;;;;;5046899;28;20083;-60
2022/10/30 08:50:10;;;;;;;30.55;15.57;;;14.50;99.90;;;;;;5034688;28;20481;-60
2022/10/30 08:52:36;;;;;;;26.88;15.55;;;14.60;99.90;;;;;;5051829;28;20485;-60
2022/10/30 08:55:02;;;;;;;33.90;15.90;;;14.70;99.90;;;;;;5030286;28;20425;-60
2022/10/30 08:57:27;;;;;;;23.35;15.38;;;14.70;99.90;;;;;;5014511;28;20095;-60
2022/10/30 08:59:53;;;;;;;22.17;14.40;;;14.80;99.90;;;;;;5013981;28;20119;-60
2022/10/30 09:02:19;;;;;;;24.30;15.60;;;14.90;99.90;;;;;;5013994;28;20100;-60
2022/10/30 09:04:44;;;;;;;25.20;15.07;;;15.00;99.90;;;;;;5031510;28;20125;-60
2022/10/30 09:07:10;;;;;;;22.45;15.52;;;15.10;99.90;;;;;;5032252;28;20076;-60
2022/10/30 09:09:41;;;;;;;25.75;15.27;;;15.10;99.90;;;;;;5031646;28;20052;-60
2022/10/30 09:12:16;;;;;;;25.38;15.50;;;15.10;99.90;;;;;;5034017;28;20045;-60
2022/10/30 09:14:41;;;;;;;30.35;15.07;;;15.20;99.90;;;;;;5050438;28;20037;-60
2022/10/30 09:17:07;;;;;;;25.77;15.15;;;15.30;99.90;;;;;;5033415;28;20370;-60
2022/10/30 09:19:33;;;;;;;23.25;14.35;;;15.30;99.90;;;;;;5034024;28;20063;-60
2022/10/30 09:21:58;;;;;;;25.15;14.82;;;15.40;99.90;;;;;;5050016;28;20748;-60
2022/10/30 09:24:25;;;;;;;24.90;15.02;;;15.50;99.90;;;;;;5051841;28;20064;-61
2022/10/30 09:26:51;;;;;;;22.20;13.15;;;15.50;99.90;;;;;;5036252;28;20072;-60
2022/10/30 09:29:17;;;;;;;24.17;14.57;;;15.50;99.90;;;;;;5033645;28;20481;-61
2022/10/30 09:31:43;;;;;;;24.15;13.77;;;15.50;99.90;;;;;;5040838;28;20086;-61
2022/10/30 09:34:08;;;;;;;29.08;13.43;;;15.60;99.90;;;;;;5041305;28;20040;-60
2022/10/30 09:36:34;;;;;;;31.45;14.85;;;15.70;99.90;;;;;;5056724;28;20477;-61
2022/10/30 09:39:00;;;;;;;21.17;13.30;;;15.70;99.90;;;;;;5045200;28;20045;-60
2022/10/30 09:41:48;;;;;;;25.10;14.50;;;15.80;99.90;;;;;;5037739;28;20048;-60
2022/10/30 09:44:29;;;;;;;23.63;13.73;;;15.90;99.90;;;;;;5037447;28;20106;-60
2022/10/30 09:47:07;;;;;;;21.23;14.05;;;15.90;99.90;;;;;;5037092;28;20424;-60
2022/10/30 09:49:59;;;;;;;22.73;13.55;;;16.00;99.90;;;;;;5037395;28;20049;-60
2022/10/30 09:52:48;;;;;;;24.63;13.55;;;16.10;99.90;;;;;;5037429;28;20045;-60
2022/10/30 09:55:45;;;;;;;20.50;13.55;;;16.20;99.90;;;;;;5042338;28;20033;-60
2022/10/30 09:58:17;;;;;;;19.52;13.07;;;16.20;99.90;;;;;;5074819;28;20047;-60
2022/10/30 10:01:06;;;;;;;20.33;13.85;;;16.30;99.90;;;;;;5065760;28;20045;-60
2022/10/30 10:03:59;;;;;;;20.40;14.18;;;16.40;99.90;;;;;;5037496;28;20048;-60
2022/10/30 10:06:26;;;;;;;20.73;13.68;;;16.40;99.90;;;;;;5055425;28;20148;-60
2022/10/30 10:09:03;;;;;;;18.48;12.40;;;16.50;99.90;;;;;;5054860;28;20458;-60
2022/10/30 10:11:34;;;;;;;18.20;12.20;;;16.60;99.90;;;;;;5054624;28;20033;-60
2022/10/30 10:14:02;;;;;;;23.13;13.02;;;16.70;99.90;;;;;;5037100;28;20045;-60
2022/10/30 10:16:35;;;;;;;22.98;13.25;;;16.70;99.90;;;;;;5054611;28;20052;-60
2022/10/30 10:19:22;;;;;;;21.48;12.68;;;16.70;99.90;;;;;;5019854;28;20045;-60
2022/10/30 10:21:55;;;;;;;19.73;12.35;;;16.80;99.90;;;;;;5036023;28;20087;-61
2022/10/30 10:24:33;;;;;;;19.83;12.07;;;16.90;99.90;;;;;;5020552;28;20052;-60
2022/10/30 10:27:02;;;;;;;21.08;12.05;;;16.90;99.90;;;;;;5036078;28;20052;-60
2022/10/30 10:29:41;;;;;;;19.67;12.07;;;17.00;99.90;;;;;;5036871;28;20041;-60
2022/10/30 10:32:13;;;;;;;23.67;12.27;;;17.10;99.90;;;;;;5035948;28;20044;-60
2022/10/30 10:35:19;;;;;;;18.52;11.80;;;17.10;99.90;;;;;;5036449;28;20037;-60
2022/10/30 10:37:51;;;;;;;18.92;10.98;;;17.20;99.90;;;;;;5033018;28;20363;-60
2022/10/30 10:40:51;;;;;;;21.25;11.45;;;17.20;99.90;;;;;;5016343;28;20394;-60
2022/10/30 10:43:27;;;;;;;24.15;12.40;;;17.30;99.90;;;;;;5016824;28;20045;-60
2022/10/30 10:46:12;;;;;;;20.73;10.77;;;17.30;99.90;;;;;;5011191;28;20048;-60
2022/10/30 10:48:56;;;;;;;19.77;11.38;;;17.30;99.90;;;;;;5053960;28;20524;-60
2022/10/30 10:51:31;;;;;;;24.23;12.40;;;17.30;99.90;;;;;;5020232;28;20562;-60
2022/10/30 10:54:15;;;;;;;20.63;11.48;;;17.30;99.90;;;;;;5019036;28;20367;-60
2022/10/30 10:56:45;;;;;;;18.77;11.50;;;17.40;99.90;;;;;;5036285;28;20048;-60
2022/10/30 10:59:22;;;;;;;17.13;10.77;;;17.50;99.90;;;;;;5036481;28;20490;-60
2022/10/30 11:02:08;;;;;;;20.17;11.43;;;17.50;99.90;;;;;;5052563;28;20436;-60
2022/10/30 11:04:45;;;;;;;17.08;10.45;;;17.60;99.90;;;;;;5035564;28;20063;-60
2022/10/30 11:07:25;;;;;;;21.42;10.65;;;17.60;99.90;;;;;;5053487;28;20036;-60
2022/10/30 11:09:56;;;;;;;23.25;11.70;;;17.70;99.90;;;;;;5035815;28;20408;-60
2022/10/30 11:12:33;;;;;;;21.42;10.40;;;17.70;99.90;;;;;;5053977;28;20386;-60
2022/10/30 11:15:11;;;;;;;20.88;12.70;;;17.70;99.90;;;;;;5035023;28;20075;-60
2022/10/30 11:17:59;;;;;;;22.90;11.60;;;17.70;99.90;;;;;;5032456;28;20045;-59
2022/10/30 11:20:35;;;;;;;20.80;10.27;;;17.80;99.90;;;;;;5016324;28;20045;-59
2022/10/30 11:23:00;;;;;;;19.25;10.20;;;17.80;99.90;;;;;;5025304;28;20045;-59
2022/10/30 11:25:35;;;;;;;17.35;11.35;;;17.80;99.90;;;;;;5053857;28;20041;-59
2022/10/30 11:28:03;;;;;;;21.35;9.52;;;17.90;99.90;;;;;;5034792;28;20029;-59
2022/10/30 11:30:30;;;;;;;17.95;10.68;;;17.90;99.90;;;;;;5042781;28;20393;-59
2022/10/30 11:32:57;;;;;;;18.42;9.93;;;17.90;99.90;;;;;;5055033;28;20036;-59
2022/10/30 11:35:24;;;;;;;17.77;10.30;;;18.00;99.90;;;;;;5037376;28;20139;-59
2022/10/30 11:38:17;;;;;;;15.50;9.20;;;18.00;99.90;;;;;;5053077;28;20048;-60
2022/10/30 11:40:47;;;;;;;17.13;9.25;;;18.10;99.90;;;;;;5035372;28;20045;-60
2022/10/30 11:43:17;;;;;;;16.27;9.30;;;18.20;99.90;;;;;;5034859;28;20044;-60
2022/10/30 11:45:43;;;;;;;16.90;8.75;;;18.20;99.90;;;;;;5035058;28;20489;-60
2022/10/30 11:48:30;;;;;;;14.95;9.73;;;18.20;99.90;;;;;;5052209;28;20039;-60
2022/10/30 11:50:59;;;;;;;14.88;8.57;;;18.20;99.90;;;;;;5034135;28;20060;-60
2022/10/30 11:53:34;;;;;;;14.38;7.57;;;18.20;99.90;;;;;;5018730;28;20123;-60
2022/10/30 11:56:01;;;;;;;19.33;9.48;;;18.30;99.90;;;;;;5035367;28;20144;-61
2022/10/30 11:58:35;;;;;;;14.32;8.65;;;18.30;99.90;;;;;;5034371;28;20060;-60
2022/10/30 12:01:05;;;;;;;20.65;9.00;;;18.30;99.90;;;;;;5033835;28;20037;-60
2022/10/30 12:03:39;;;;;;;16.90;8.68;;;18.30;99.90;;;;;;5034111;28;20037;-61
2022/10/30 12:06:18;;;;;;;17.10;8.13;;;18.40;99.90;;;;;;5034519;28;20056;-61
2022/10/30 12:09:28;;;;;;;19.60;8.60;;;18.40;99.90;;;;;;5062367;28;20033;-61
2022/10/30 12:11:54;;;;;;;15.32;8.88;;;18.40;99.90;;;;;;5036440;28;20072;-61
2022/10/30 12:14:23;;;;;;;18.30;8.95;;;18.30;99.90;;;;;;5055115;28;20075;-61
2022/10/30 12:16:55;;;;;;;18.77;10.05;;;18.30;99.90;;;;;;5037572;28;20086;-61
2022/10/30 12:19:24;;;;;;;18.27;9.15;;;18.40;99.90;;;;;;5071722;28;20562;-61
2022/10/30 12:21:52;;;;;;;20.63;9.73;;;18.40;99.90;;;;;;5054298;28;20386;-61
2022/10/30 12:24:37;;;;;;;15.43;9.10;;;18.40;99.90;;;;;;5033032;28;20051;-61
2022/10/30 12:27:10;;;;;;;16.52;9.73;;;18.50;99.90;;;;;;5037844;28;20071;-61
2022/10/30 12:30:03;;;;;;;16.57;8.77;;;18.60;99.90;;;;;;5034154;28;20045;-61
2022/10/30 12:32:48;;;;;;;14.48;8.45;;;18.60;99.90;;;;;;5033628;28;20091;-61
2022/10/30 12:35:45;;;;;;;14.88;9.20;;;18.50;99.90;;;;;;5017079;28;20551;-64
2022/10/30 12:38:19;;;;;;;11.77;7.00;;;18.50;99.90;;;;;;5019005;28;20052;-64
2022/10/30 12:41:04;;;;;;;15.55;8.10;;;18.50;99.90;;;;;;5032921;28;20037;-67
2022/10/30 12:43:34;;;;;;;14.98;8.82;;;18.60;99.90;;;;;;5016613;28;20028;-64